Time;durP1;ratioP1;P1;durP2;ratioP2;P2;SDS_P1;SDS_P2;PMS_P1;PMS_P2;Temp;Humidity;BMP_temperature;BMP_pressure;BME280_temperature;BME280_humidity;BME280_pressure;Samples;Min_cycle;Max_cycle;Signal;HPM_P1;HPM_P2
2021/12/20 07:01:32;;;;;;;18.00;11.68;;;5.30;99.90;;;;;;5423387;23;20039;-88
2021/12/20 07:04:23;;;;;;;21.17;12.32;;;5.30;99.90;;;;;;4950880;28;20514;-86
2021/12/20 07:06:52;;;;;;;18.17;11.75;;;5.30;99.90;;;;;;4951187;28;20412;-92
2021/12/20 07:09:19;;;;;;;18.08;11.68;;;5.30;99.90;;;;;;4963028;28;20059;-85
2021/12/20 07:11:46;;;;;;;16.35;11.38;;;5.30;99.90;;;;;;4936514;29;20499;-87
2021/12/20 07:14:38;;;;;;;16.92;11.27;;;5.30;99.90;;;;;;4923061;29;20047;-87
2021/12/20 07:17:05;;;;;;;16.02;10.50;;;5.30;99.90;;;;;;4944245;28;20499;-86
2021/12/20 07:19:32;;;;;;;18.13;11.85;;;5.30;99.90;;;;;;4937736;29;20047;-86
2021/12/20 07:21:59;;;;;;;16.73;11.30;;;5.30;99.90;;;;;;4937088;29;20047;-87
2021/12/20 07:24:26;;;;;;;17.35;10.55;;;5.30;99.90;;;;;;4954960;28;20523;-87
2021/12/20 07:26:53;;;;;;;18.17;11.43;;;5.40;99.90;;;;;;4954044;28;20586;-88
2021/12/20 07:29:20;;;;;;;16.50;11.07;;;5.40;99.90;;;;;;4951828;28;20598;-85
2021/12/20 07:31:47;;;;;;;15.48;10.48;;;5.40;99.90;;;;;;4953345;28;20051;-88
2021/12/20 07:34:14;;;;;;;16.58;10.63;;;5.40;99.90;;;;;;4954523;28;20055;-88
2021/12/20 07:36:41;;;;;;;16.90;11.15;;;5.40;99.90;;;;;;4937946;29;20121;-88
2021/12/20 07:39:08;;;;;;;17.92;11.35;;;5.40;99.90;;;;;;4937383;28;20055;-86
2021/12/20 07:41:51;;;;;;;17.52;10.48;;;5.40;99.90;;;;;;4936048;29;20134;-86
2021/12/20 07:44:19;;;;;;;17.17;11.45;;;5.40;99.90;;;;;;4934457;28;20052;-86
2021/12/20 07:46:46;;;;;;;16.65;11.25;;;5.40;99.90;;;;;;4951406;28;20476;-88
2021/12/20 07:49:13;;;;;;;16.33;11.13;;;5.40;99.90;;;;;;4950677;28;20087;-87
2021/12/20 07:51:40;;;;;;;17.35;11.65;;;5.40;99.90;;;;;;4938197;29;20039;-87
2021/12/20 07:54:07;;;;;;;21.98;12.80;;;5.50;99.90;;;;;;4937182;28;20051;-87
2021/12/20 07:56:34;;;;;;;21.95;13.10;;;5.50;99.90;;;;;;4954351;28;20047;-86
2021/12/20 07:59:01;;;;;;;16.15;11.60;;;5.50;99.90;;;;;;4937633;29;20050;-88
2021/12/20 08:01:33;;;;;;;17.38;11.20;;;5.50;99.90;;;;;;4936774;28;20420;-85
2021/12/20 08:04:02;;;;;;;15.52;10.32;;;5.50;99.90;;;;;;4954725;28;20055;-88
2021/12/20 08:06:29;;;;;;;15.25;10.65;;;5.50;99.90;;;;;;4933776;28;20165;-85
2021/12/20 08:08:56;;;;;;;17.05;12.40;;;5.50;99.90;;;;;;4931732;29;20051;-86
2021/12/20 08:11:24;;;;;;;16.02;10.77;;;5.50;99.90;;;;;;4936809;28;20133;-84
2021/12/20 08:13:51;;;;;;;16.13;11.30;;;5.50;99.90;;;;;;4954130;28;20059;-86
2021/12/20 08:16:19;;;;;;;17.20;12.00;;;5.50;99.90;;;;;;4933549;29;20055;-85
2021/12/20 08:18:47;;;;;;;;;;;5.50;99.90;;;;;;4949993;28;20043;-85
2021/12/20 08:21:15;;;;;;;14.93;10.45;;;5.50;99.90;;;;;;4950653;28;19989;-83
2021/12/20 08:23:48;;;;;;;16.55;11.15;;;5.50;99.90;;;;;;4953277;28;20047;-86
2021/12/20 08:26:20;;;;;;;15.82;11.00;;;5.50;99.90;;;;;;4928657;28;20059;-84
2021/12/20 08:28:47;;;;;;;18.73;11.55;;;5.50;99.90;;;;;;4948154;28;20051;-85
2021/12/20 08:31:14;;;;;;;15.70;11.57;;;5.50;99.90;;;;;;4934088;28;20522;-85
2021/12/20 08:33:41;;;;;;;16.80;11.20;;;5.50;99.90;;;;;;4953059;28;20062;-87
2021/12/20 08:36:12;;;;;;;19.02;11.85;;;5.50;99.90;;;;;;4931570;28;20043;-86
2021/12/20 08:38:40;;;;;;;15.57;10.60;;;5.50;99.90;;;;;;4945356;28;20050;-86
2021/12/20 08:41:14;;;;;;;15.90;11.80;;;5.50;99.90;;;;;;4934780;28;20067;-87
2021/12/20 08:43:41;;;;;;;16.30;11.52;;;5.50;99.90;;;;;;4950890;28;20154;-86
2021/12/20 08:46:10;;;;;;;15.07;10.95;;;5.50;99.90;;;;;;4947006;28;20051;-86
2021/12/20 08:48:38;;;;;;;15.98;11.35;;;5.50;99.90;;;;;;4948339;28;20074;-85
2021/12/20 08:51:08;;;;;;;17.45;11.68;;;5.60;99.90;;;;;;4929189;28;20567;-85
2021/12/20 08:53:36;;;;;;;15.40;10.65;;;5.60;99.90;;;;;;4949826;28;20052;-87
2021/12/20 08:56:04;;;;;;;15.80;11.07;;;5.60;99.90;;;;;;4934265;28;20515;-86
2021/12/20 08:58:31;;;;;;;16.42;11.30;;;5.60;99.90;;;;;;4928330;28;20058;-86
2021/12/20 09:00:59;;;;;;;16.25;10.68;;;5.60;99.90;;;;;;4930862;29;20058;-83
2021/12/20 09:03:30;;;;;;;16.13;11.18;;;5.60;99.90;;;;;;4941169;28;20065;-83
2021/12/20 09:05:57;;;;;;;15.55;11.48;;;5.60;99.90;;;;;;4944040;28;20412;-84
2021/12/20 09:08:24;;;;;;;15.13;10.25;;;5.60;99.90;;;;;;4944488;28;20497;-84
2021/12/20 09:10:51;;;;;;;17.05;11.40;;;5.70;99.90;;;;;;4951163;28;20058;-85
2021/12/20 09:13:18;;;;;;;16.80;11.05;;;5.70;99.90;;;;;;4931406;28;20043;-85
2021/12/20 09:15:45;;;;;;;18.58;12.05;;;5.70;99.90;;;;;;4949792;28;20047;-84
2021/12/20 09:18:13;;;;;;;16.52;11.35;;;5.70;99.90;;;;;;4951231;28;20056;-86
2021/12/20 09:20:40;;;;;;;16.45;11.40;;;5.70;99.90;;;;;;4929085;29;20043;-84
2021/12/20 09:23:11;;;;;;;21.95;11.93;;;5.70;99.90;;;;;;4933751;28;20043;-82
2021/12/20 09:25:43;;;;;;;18.63;11.90;;;5.70;99.90;;;;;;4950709;28;20051;-82
2021/12/20 09:28:11;;;;;;;19.33;12.55;;;5.70;99.90;;;;;;4934060;28;20188;-82
2021/12/20 09:30:41;;;;;;;16.83;11.95;;;5.70;99.90;;;;;;4951622;28;20074;-82
2021/12/20 09:33:09;;;;;;;17.67;12.20;;;5.80;99.90;;;;;;4950771;28;20043;-83
2021/12/20 09:35:37;;;;;;;16.27;12.07;;;5.80;99.90;;;;;;4949466;28;20158;-82
2021/12/20 09:38:10;;;;;;;15.60;11.43;;;5.70;99.90;;;;;;4947019;28;20405;-83
2021/12/20 09:40:51;;;;;;;17.20;11.05;;;5.70;99.90;;;;;;4949014;28;20117;-82
2021/12/20 09:43:20;;;;;;;17.63;11.68;;;5.80;99.90;;;;;;4949900;28;20578;-83
2021/12/20 09:45:47;;;;;;;16.33;11.32;;;5.80;99.90;;;;;;4949894;28;20059;-83
2021/12/20 09:48:14;;;;;;;17.00;11.35;;;5.80;99.90;;;;;;4949198;28;20055;-82
2021/12/20 09:50:42;;;;;;;15.60;11.27;;;5.80;99.90;;;;;;4932627;29;20520;-83
2021/12/20 09:53:09;;;;;;;19.17;11.70;;;5.80;99.90;;;;;;4933565;28;20489;-83
2021/12/20 09:55:36;;;;;;;17.30;10.85;;;5.80;99.90;;;;;;4934215;29;20047;-82
2021/12/20 09:58:05;;;;;;;15.98;11.80;;;5.80;99.90;;;;;;4949285;28;20047;-85
2021/12/20 10:00:33;;;;;;;;;;;5.80;99.90;;;;;;4932574;28;20043;-82
2021/12/20 10:03:00;;;;;;;20.00;10.27;;;5.80;99.90;;;;;;4950516;28;20017;-84
2021/12/20 10:05:27;;;;;;;19.02;11.13;;;5.80;99.90;;;;;;4930984;28;20044;-85
2021/12/20 10:08:09;;;;;;;17.13;11.70;;;5.80;99.90;;;;;;4953804;28;20062;-83
2021/12/20 10:10:36;;;;;;;15.45;10.18;;;5.80;99.90;;;;;;4940082;28;20083;-81
2021/12/20 10:13:03;;;;;;;16.05;11.57;;;5.90;99.90;;;;;;4919983;29;20098;-82
2021/12/20 10:15:37;;;;;;;14.35;10.90;;;5.90;99.90;;;;;;4921878;29;20453;-83
2021/12/20 10:18:05;;;;;;;16.73;11.45;;;5.90;99.90;;;;;;4935831;28;20051;-82
2021/12/20 10:20:34;;;;;;;14.55;10.75;;;5.90;99.90;;;;;;4943478;28;20043;-83
2021/12/20 10:23:09;;;;;;;;;;;6.00;99.90;;;;;;4945797;28;20125;-83
2021/12/20 10:26:21;;;;;;;15.48;10.63;;;5.90;99.90;;;;;;4944427;28;19926;-83
2021/12/20 10:28:52;;;;;;;16.63;11.03;;;5.90;99.90;;;;;;4942099;28;20075;-82
2021/12/20 10:31:24;;;;;;;15.95;10.13;;;6.00;99.90;;;;;;4939143;28;20505;-82
2021/12/20 10:34:00;;;;;;;15.02;10.48;;;6.00;99.90;;;;;;4940347;28;20051;-82
2021/12/20 10:36:28;;;;;;;15.02;10.68;;;6.00;99.90;;;;;;4924825;28;20051;-82
2021/12/20 10:38:57;;;;;;;15.82;11.35;;;6.00;99.90;;;;;;4927113;29;20055;-83
2021/12/20 10:41:36;;;;;;;15.30;10.18;;;6.00;99.90;;;;;;4944084;28;20058;-81
2021/12/20 10:44:15;;;;;;;15.40;10.48;;;6.00;99.90;;;;;;4939972;28;20043;-82
2021/12/20 10:46:54;;;;;;;14.18;10.00;;;6.00;99.90;;;;;;4927255;29;20140;-82
2021/12/20 10:49:28;;;;;;;13.73;10.02;;;6.00;99.90;;;;;;4942196;28;20051;-82
2021/12/20 10:51:56;;;;;;;15.75;10.75;;;6.00;99.90;;;;;;4939858;28;20043;-80
2021/12/20 10:54:30;;;;;;;14.57;10.07;;;6.00;99.90;;;;;;4935256;28;20059;-80
2021/12/20 10:57:05;;;;;;;13.77;10.52;;;6.00;99.90;;;;;;4944734;28;20507;-82
2021/12/20 10:59:35;;;;;;;15.77;11.75;;;6.00;99.90;;;;;;4927718;28;20051;-80
2021/12/20 11:05:23;;;;;;;15.50;10.75;;;6.00;99.90;;;;;;4890147;29;20056;-81
2021/12/20 11:10:39;;;;;;;15.82;10.75;;;6.00;99.90;;;;;;4890237;29;20056;-82
2021/12/20 11:13:16;;;;;;;15.95;10.93;;;6.00;99.90;;;;;;4889995;29;20117;-82
2021/12/20 11:15:43;;;;;;;15.57;11.23;;;6.00;99.90;;;;;;4890678;29;20482;-83
2021/12/20 11:18:16;;;;;;;17.05;11.70;;;6.00;99.90;;;;;;4901961;29;20521;-83
2021/12/20 11:20:43;;;;;;;17.70;12.20;;;6.00;99.90;;;;;;4903673;29;20052;-81
2021/12/20 11:23:12;;;;;;;17.88;12.07;;;6.00;99.90;;;;;;4904323;29;20822;-82
2021/12/20 11:25:40;;;;;;;17.35;12.10;;;6.00;99.90;;;;;;4900099;29;20048;-80
2021/12/20 11:28:07;;;;;;;17.45;11.98;;;6.00;99.90;;;;;;4900635;29;20057;-80
2021/12/20 11:30:35;;;;;;;17.40;11.80;;;6.00;99.90;;;;;;4890802;29;20546;-83
2021/12/20 11:33:02;;;;;;;18.92;13.35;;;6.00;99.90;;;;;;4883947;29;20148;-81
2021/12/20 11:35:30;;;;;;;17.25;12.02;;;6.00;99.90;;;;;;4892391;29;20048;-80
2021/12/20 11:37:58;;;;;;;19.02;12.65;;;6.00;99.90;;;;;;4894740;29;20059;-81
2021/12/20 11:40:25;;;;;;;18.92;12.35;;;6.00;99.90;;;;;;4912758;28;23951;-82
2021/12/20 11:42:52;;;;;;;21.83;13.48;;;6.00;99.90;;;;;;4945775;28;20062;-81
2021/12/20 11:45:20;;;;;;;21.85;15.07;;;6.00;99.90;;;;;;4948042;28;20046;-81
2021/12/20 11:47:57;;;;;;;18.10;12.40;;;6.10;99.90;;;;;;4948902;28;20059;-80
2021/12/20 11:50:35;;;;;;;19.02;12.85;;;6.10;99.90;;;;;;4943776;28;20073;-84
2021/12/20 11:53:10;;;;;;;19.80;13.48;;;6.10;99.90;;;;;;4947526;28;20050;-81
2021/12/20 11:55:44;;;;;;;20.77;13.40;;;6.10;99.90;;;;;;4936660;28;20051;-82
2021/12/20 11:58:23;;;;;;;21.10;13.13;;;6.10;99.90;;;;;;4933740;28;20420;-81
2021/12/20 12:00:53;;;;;;;17.30;12.23;;;6.10;99.90;;;;;;4934126;28;20051;-81
2021/12/20 12:03:30;;;;;;;18.00;12.60;;;6.10;99.90;;;;;;4929464;28;20047;-84
2021/12/20 12:05:59;;;;;;;20.35;13.20;;;6.10;99.90;;;;;;4933203;28;20154;-83
2021/12/20 12:08:30;;;;;;;18.17;12.25;;;6.10;99.90;;;;;;4949509;28;20114;-82
2021/12/20 12:11:19;;;;;;;17.45;11.85;;;6.10;99.90;;;;;;4936435;28;20051;-82
2021/12/20 12:13:51;;;;;;;18.10;12.30;;;6.00;99.90;;;;;;4925917;28;20115;-79
2021/12/20 12:16:37;;;;;;;18.58;12.77;;;6.00;99.90;;;;;;4933059;28;20055;-83
2021/12/20 12:19:04;;;;;;;18.52;12.23;;;6.00;99.90;;;;;;4933507;28;20135;-80
2021/12/20 12:21:32;;;;;;;17.33;12.18;;;6.00;99.90;;;;;;4930861;28;20055;-79
2021/12/20 12:24:43;;;;;;;18.92;13.00;;;6.10;99.90;;;;;;4934624;28;20048;-81
2021/12/20 12:27:21;;;;;;;18.40;13.05;;;6.10;99.90;;;;;;4942463;28;20047;-80
2021/12/20 12:30:13;;;;;;;19.75;13.98;;;6.10;99.90;;;;;;4947910;28;20102;-81
2021/12/20 12:32:44;;;;;;;20.23;13.30;;;6.20;99.90;;;;;;4935985;28;20165;-81
2021/12/20 12:35:39;;;;;;;19.35;13.63;;;6.20;99.90;;;;;;4935078;28;20091;-80
2021/12/20 12:38:15;;;;;;;21.55;14.20;;;6.20;99.90;;;;;;4941426;28;20055;-79
2021/12/20 12:40:49;;;;;;;18.92;12.77;;;6.20;99.90;;;;;;4937371;28;20063;-81
2021/12/20 12:43:18;;;;;;;18.77;12.75;;;6.20;99.90;;;;;;4929137;28;20047;-80
2021/12/20 12:45:56;;;;;;;;;;;6.20;99.90;;;;;;4946678;28;20059;-79
2021/12/20 12:48:38;;;;;;;17.83;12.05;;;6.20;99.90;;;;;;4945217;28;20072;-81
2021/12/20 12:51:20;;;;;;;22.80;13.45;;;6.20;99.90;;;;;;4946818;28;20105;-80
2021/12/20 12:53:47;;;;;;;17.73;13.15;;;6.20;99.90;;;;;;4949853;28;20051;-83
2021/12/20 12:56:41;;;;;;;18.70;12.50;;;6.20;99.90;;;;;;4947898;28;20067;-82
2021/12/20 12:59:12;;;;;;;18.47;12.70;;;6.10;99.90;;;;;;4943753;28;20480;-82
2021/12/20 13:02:12;;;;;;;19.90;12.35;;;6.10;99.90;;;;;;4946096;28;20062;-80
2021/12/20 13:04:49;;;;;;;18.52;12.55;;;6.10;99.90;;;;;;4941661;28;20051;-81
2021/12/20 13:07:25;;;;;;;20.45;14.18;;;6.20;99.90;;;;;;4938962;28;20050;-81
2021/12/20 13:09:56;;;;;;;22.23;14.18;;;6.20;99.90;;;;;;4947441;28;20081;-82
2021/12/20 13:12:51;;;;;;;20.63;13.40;;;6.20;99.90;;;;;;4944828;28;20051;-81
2021/12/20 13:18:07;;;;;;;19.92;13.85;;;6.20;99.90;;;;;;4932899;28;20058;-82
2021/12/20 13:23:17;;;;;;;24.08;15.07;;;6.30;99.90;;;;;;4936736;28;20043;-82
2021/12/20 13:26:05;;;;;;;20.20;13.85;;;6.20;99.90;;;;;;4933023;28;20110;-79
2021/12/20 13:28:52;;;;;;;22.35;14.25;;;6.20;99.90;;;;;;4940397;28;20690;-81
2021/12/20 13:31:28;;;;;;;21.52;14.60;;;6.20;99.90;;;;;;4940059;28;20415;-82
2021/12/20 13:33:59;;;;;;;20.73;13.75;;;6.20;99.90;;;;;;4944205;29;20126;-83
2021/12/20 13:36:33;;;;;;;20.63;13.85;;;6.20;99.90;;;;;;4945294;28;20508;-80
2021/12/20 13:39:12;;;;;;;25.30;15.55;;;6.30;99.90;;;;;;4935195;28;20043;-79
2021/12/20 13:41:39;;;;;;;19.83;14.15;;;6.20;99.90;;;;;;4943488;28;20040;-80
2021/12/20 13:44:10;;;;;;;20.15;13.93;;;6.20;99.90;;;;;;4944858;28;20133;-80
2021/12/20 13:46:47;;;;;;;23.23;15.75;;;6.20;99.90;;;;;;4941708;28;20146;-79
2021/12/20 13:49:25;;;;;;;23.92;16.58;;;6.20;99.90;;;;;;4937358;28;20040;-80
2021/12/20 13:52:01;;;;;;;21.75;14.75;;;6.20;99.90;;;;;;4943276;28;20716;-81
2021/12/20 13:54:39;;;;;;;25.85;16.70;;;6.20;99.90;;;;;;4947788;28;20047;-81
2021/12/20 13:57:15;;;;;;;26.83;16.92;;;6.30;99.90;;;;;;4946686;28;20062;-82
2021/12/20 14:00:06;;;;;;;27.00;17.85;;;6.20;99.90;;;;;;4952911;28;20111;-81
2021/12/20 14:02:39;;;;;;;24.73;16.25;;;6.30;99.90;;;;;;4928031;29;20047;-81
2021/12/20 14:05:16;;;;;;;21.90;15.43;;;6.30;99.90;;;;;;4949671;28;20050;-81
2021/12/20 14:07:47;;;;;;;22.23;15.40;;;6.30;99.90;;;;;;4942835;28;20130;-80
2021/12/20 14:10:29;;;;;;;30.05;18.00;;;6.30;99.90;;;;;;4942888;28;20168;-81
2021/12/20 14:13:01;;;;;;;24.73;16.50;;;6.30;99.90;;;;;;4932757;28;20052;-79
2021/12/20 14:15:33;;;;;;;23.85;14.93;;;6.30;99.90;;;;;;4934303;28;20479;-80
2021/12/20 14:18:03;;;;;;;21.10;15.05;;;6.30;99.90;;;;;;4932569;28;20051;-80
2021/12/20 14:20:46;;;;;;;27.88;16.30;;;6.30;99.90;;;;;;4946329;28;20054;-79
2021/12/20 14:23:33;;;;;;;25.90;15.85;;;6.30;99.90;;;;;;4946652;28;20589;-80
2021/12/20 14:26:37;;;;;;;24.63;16.02;;;6.20;99.90;;;;;;4947152;28;20043;-80
2021/12/20 14:29:08;;;;;;;26.15;16.15;;;6.20;99.90;;;;;;4945431;28;20058;-81
2021/12/20 14:31:50;;;;;;;23.30;16.38;;;6.20;99.90;;;;;;4942809;28;20051;-80
2021/12/20 14:34:31;;;;;;;23.27;15.30;;;6.10;99.90;;;;;;4944351;28;20047;-80
2021/12/20 14:37:11;;;;;;;25.30;16.35;;;6.10;99.90;;;;;;4936990;28;20050;-80
2021/12/20 14:40:02;;;;;;;28.05;17.73;;;6.20;99.90;;;;;;4941392;28;20054;-84
2021/12/20 14:42:32;;;;;;;25.83;16.98;;;6.10;99.90;;;;;;4929022;29;24078;-79
2021/12/20 14:45:01;;;;;;;28.00;17.23;;;6.10;99.90;;;;;;4945776;28;20812;-81
2021/12/20 14:47:40;;;;;;;28.58;17.52;;;6.10;99.90;;;;;;4930943;28;20054;-81
2021/12/20 14:50:26;;;;;;;27.10;16.85;;;6.10;99.90;;;;;;4947606;28;20073;-80
2021/12/20 14:52:54;;;;;;;25.55;16.60;;;6.10;99.90;;;;;;4935610;28;20054;-82
2021/12/20 14:55:21;;;;;;;27.38;16.30;;;6.10;99.90;;;;;;4940750;28;20483;-80
2021/12/20 14:57:51;;;;;;;31.58;18.50;;;6.10;99.90;;;;;;4948298;28;20059;-80
2021/12/20 15:00:21;;;;;;;25.83;17.02;;;6.10;99.90;;;;;;4928514;28;20043;-81
2021/12/20 15:02:48;;;;;;;26.98;17.08;;;6.10;99.90;;;;;;4944899;28;20051;-84
2021/12/20 15:05:16;;;;;;;24.42;16.23;;;6.10;99.90;;;;;;4947339;28;20078;-82
2021/12/20 15:07:43;;;;;;;24.08;16.60;;;6.00;99.90;;;;;;4931827;28;20051;-81
2021/12/20 15:10:14;;;;;;;27.90;18.15;;;6.00;99.90;;;;;;4946551;28;20058;-82
2021/12/20 15:12:41;;;;;;;25.17;18.42;;;6.00;99.90;;;;;;4943749;28;20055;-83
2021/12/20 15:15:09;;;;;;;26.92;17.38;;;6.00;99.90;;;;;;4941967;28;20058;-83
2021/12/20 15:17:36;;;;;;;25.83;17.08;;;6.00;99.90;;;;;;4945870;28;20047;-80
2021/12/20 15:20:05;;;;;;;26.45;17.20;;;6.00;99.90;;;;;;4942973;28;20071;-81
2021/12/20 15:22:32;;;;;;;25.65;17.55;;;6.00;99.90;;;;;;4944513;28;20864;-81
2021/12/20 15:24:59;;;;;;;30.58;17.70;;;5.90;99.90;;;;;;4944177;28;20411;-81
2021/12/20 15:27:26;;;;;;;30.00;17.83;;;5.90;99.90;;;;;;4939247;28;20058;-80
2021/12/20 15:29:54;;;;;;;25.50;16.73;;;5.90;99.90;;;;;;4946194;28;20073;-79
2021/12/20 15:32:20;;;;;;;26.73;17.02;;;5.90;99.90;;;;;;4944711;28;20062;-81
2021/12/20 15:34:49;;;;;;;32.35;17.85;;;5.90;99.90;;;;;;4946210;28;20114;-79
2021/12/20 15:37:16;;;;;;;28.42;18.02;;;5.90;99.90;;;;;;4942612;28;20066;-80
2021/12/20 15:39:44;;;;;;;32.38;19.50;;;5.90;99.90;;;;;;4945582;28;20475;-81
2021/12/20 15:42:22;;;;;;;33.65;20.27;;;5.90;99.90;;;;;;4945100;28;20055;-81
2021/12/20 15:44:49;;;;;;;31.65;19.85;;;5.90;99.90;;;;;;4946815;28;20051;-82
2021/12/20 15:47:16;;;;;;;38.03;21.45;;;5.90;99.90;;;;;;4944051;28;20043;-79
2021/12/20 15:49:43;;;;;;;35.15;20.73;;;5.90;99.90;;;;;;4928116;29;20555;-79
2021/12/20 15:52:10;;;;;;;37.38;21.55;;;5.90;99.90;;;;;;4945685;28;20043;-79
2021/12/20 15:54:37;;;;;;;33.33;20.00;;;5.90;99.90;;;;;;4944199;28;20114;-80
2021/12/20 15:57:04;;;;;;;41.38;22.90;;;5.80;99.90;;;;;;4946570;28;20066;-80
2021/12/20 15:59:32;;;;;;;32.10;20.00;;;5.90;99.90;;;;;;4946656;28;20046;-80
2021/12/20 16:02:00;;;;;;;34.28;20.27;;;5.90;99.90;;;;;;4944418;28;20428;-79
2021/12/20 16:04:27;;;;;;;35.50;21.25;;;5.80;99.90;;;;;;4943748;28;20051;-80
2021/12/20 16:06:55;;;;;;;36.60;21.67;;;5.80;99.90;;;;;;4928668;28;20074;-79
2021/12/20 16:09:23;;;;;;;;;;;5.90;99.90;;;;;;4917228;28;20570;-80
2021/12/20 16:11:54;;;;;;;36.88;21.95;;;5.80;99.90;;;;;;4938836;28;19922;-81
2021/12/20 16:14:21;;;;;;;33.55;20.90;;;5.80;99.90;;;;;;4930174;28;20422;-81
2021/12/20 16:16:50;;;;;;;34.72;20.67;;;5.80;99.90;;;;;;4923552;28;20055;-80
2021/12/20 16:19:17;;;;;;;35.70;20.50;;;5.80;99.90;;;;;;4918696;28;20134;-81
2021/12/20 16:21:44;;;;;;;32.90;21.15;;;5.80;99.90;;;;;;4941615;28;20134;-81
2021/12/20 16:24:13;;;;;;;;;;;5.80;99.90;;;;;;4931328;28;20138;-81
2021/12/20 16:26:40;;;;;;;41.38;23.27;;;5.70;99.90;;;;;;4933831;28;19936;-82
2021/12/20 16:29:07;;;;;;;34.55;18.95;;;5.70;99.90;;;;;;4943575;28;20039;-81
2021/12/20 16:31:35;;;;;;;34.13;19.65;;;5.70;99.90;;;;;;4952170;28;20047;-80
2021/12/20 16:34:02;;;;;;;38.78;22.98;;;5.70;99.90;;;;;;4951984;28;20070;-81
2021/12/20 16:36:29;;;;;;;41.08;22.75;;;5.70;99.90;;;;;;4932523;28;20039;-81
2021/12/20 16:38:57;;;;;;;37.10;20.65;;;5.70;99.90;;;;;;4970820;28;20077;-81
2021/12/20 16:41:23;;;;;;;35.10;21.52;;;5.60;99.90;;;;;;4933852;28;20043;-81
2021/12/20 16:43:51;;;;;;;38.35;22.60;;;5.60;99.90;;;;;;4928729;29;20056;-80
2021/12/20 16:46:19;;;;;;;44.90;24.98;;;5.60;99.90;;;;;;4939939;28;20047;-80
2021/12/20 16:49:01;;;;;;;38.97;23.13;;;5.60;99.90;;;;;;4950178;28;20051;-80
2021/12/20 16:51:28;;;;;;;39.25;22.55;;;5.60;99.90;;;;;;4949325;28;20047;-81
2021/12/20 16:54:11;;;;;;;205.75;81.97;;;5.50;99.90;;;;;;4947490;28;20519;-80
2021/12/20 16:56:43;;;;;;;46.28;28.92;;;5.50;99.90;;;;;;4950741;28;20106;-80
2021/12/20 16:59:11;;;;;;;40.75;23.33;;;5.50;99.90;;;;;;4946870;28;20053;-81
2021/12/20 17:01:43;;;;;;;52.20;29.77;;;5.50;99.90;;;;;;4943283;28;20054;-80
2021/12/20 17:04:26;;;;;;;42.72;24.67;;;5.40;99.90;;;;;;4949187;28;20397;-80
2021/12/20 17:06:53;;;;;;;46.83;24.40;;;5.40;99.90;;;;;;4947753;28;20362;-80
2021/12/20 17:09:20;;;;;;;45.03;24.73;;;5.40;99.90;;;;;;4943458;28;20543;-81
2021/12/20 17:11:46;;;;;;;42.90;23.60;;;5.40;99.90;;;;;;4915080;29;20106;-81
2021/12/20 17:14:13;;;;;;;44.15;24.85;;;5.40;99.90;;;;;;4932901;28;20044;-81
2021/12/20 17:16:40;;;;;;;43.30;26.67;;;5.40;99.90;;;;;;4937035;28;20109;-82
2021/12/20 17:19:07;;;;;;;49.22;27.52;;;5.40;99.90;;;;;;4949036;28;20043;-81
2021/12/20 17:21:34;;;;;;;56.33;32.83;;;5.40;99.90;;;;;;4948151;28;20066;-81
2021/12/20 17:24:02;;;;;;;56.40;32.53;;;5.40;99.90;;;;;;4951230;28;20043;-80
2021/12/20 17:26:30;;;;;;;56.67;32.97;;;5.40;99.90;;;;;;4949243;28;20526;-80
2021/12/20 17:28:56;;;;;;;57.72;32.42;;;5.40;99.90;;;;;;4951938;28;20066;-81
2021/12/20 17:31:23;;;;;;;55.15;30.67;;;5.40;99.90;;;;;;4950718;28;20043;-80
2021/12/20 17:33:51;;;;;;;45.60;24.70;;;5.40;99.90;;;;;;4952104;28;20051;-80
2021/12/20 17:36:18;;;;;;;51.50;28.95;;;5.40;99.90;;;;;;4953071;28;20106;-81
2021/12/20 17:38:45;;;;;;;52.17;31.55;;;5.40;99.90;;;;;;4952546;28;20532;-80
2021/12/20 17:41:12;;;;;;;48.33;26.15;;;5.40;99.90;;;;;;4952673;28;20043;-81
2021/12/20 17:43:39;;;;;;;45.85;25.55;;;5.40;99.90;;;;;;4951918;28;20055;-80
2021/12/20 17:46:09;;;;;;;52.00;26.50;;;5.30;99.90;;;;;;4947129;28;20047;-81
2021/12/20 17:48:37;;;;;;;53.47;26.67;;;5.30;99.90;;;;;;4937832;28;20048;-81
2021/12/20 17:51:05;;;;;;;54.63;27.23;;;5.30;99.90;;;;;;4937430;29;20051;-81
2021/12/20 17:53:32;;;;;;;49.45;25.30;;;5.30;99.90;;;;;;4947523;28;20047;-83
2021/12/20 17:55:59;;;;;;;54.50;28.40;;;5.30;99.90;;;;;;4952765;28;20428;-81
2021/12/20 17:58:26;;;;;;;49.92;25.70;;;5.30;99.90;;;;;;4955307;28;20054;-83
2021/12/20 18:00:54;;;;;;;51.17;25.92;;;5.30;99.90;;;;;;4955309;28;20058;-83
2021/12/20 18:03:21;;;;;;;52.17;25.38;;;5.30;99.90;;;;;;4952693;28;20520;-81
2021/12/20 18:05:49;;;;;;;53.08;27.77;;;5.20;99.90;;;;;;4955264;28;20057;-81
2021/12/20 18:08:17;;;;;;;53.35;27.48;;;5.20;99.90;;;;;;4941012;28;20074;-83
2021/12/20 18:10:44;;;;;;;49.00;27.15;;;5.20;99.90;;;;;;4934087;29;20058;-81
2021/12/20 18:13:11;;;;;;;56.75;30.67;;;5.10;99.90;;;;;;4948710;28;20059;-81
2021/12/20 18:15:39;;;;;;;48.38;28.23;;;5.10;99.90;;;;;;4948172;28;20043;-83
2021/12/20 18:18:06;;;;;;;55.92;30.08;;;5.10;99.90;;;;;;4949126;28;20051;-83
2021/12/20 18:20:35;;;;;;;49.45;27.00;;;5.10;99.90;;;;;;4950743;28;20531;-82
2021/12/20 18:23:05;;;;;;;51.30;26.05;;;5.10;99.90;;;;;;4948520;28;20054;-82
2021/12/20 18:25:33;;;;;;;65.63;32.53;;;5.10;99.90;;;;;;4933293;28;20047;-82
2021/12/20 18:28:04;;;;;;;71.60;34.47;;;5.00;99.90;;;;;;4932802;28;20106;-85
2021/12/20 18:30:34;;;;;;;58.20;29.05;;;5.00;99.90;;;;;;4939135;28;20049;-82
2021/12/20 18:33:02;;;;;;;56.15;29.05;;;5.00;99.90;;;;;;4951432;28;20047;-82
2021/12/20 18:35:29;;;;;;;51.70;28.10;;;5.00;99.90;;;;;;4949288;28;20050;-83
2021/12/20 18:37:56;;;;;;;49.58;25.63;;;4.90;99.90;;;;;;4950123;28;20508;-83
2021/12/20 18:40:23;;;;;;;50.95;27.65;;;4.90;99.90;;;;;;4948683;28;20055;-82
2021/12/20 18:42:50;;;;;;;48.65;26.25;;;4.90;99.90;;;;;;4933968;28;20545;-83
2021/12/20 18:45:17;;;;;;;53.80;26.98;;;4.90;99.90;;;;;;4934509;28;20154;-83
2021/12/20 18:47:44;;;;;;;51.05;26.48;;;4.90;99.90;;;;;;4953375;28;20771;-84
2021/12/20 18:50:13;;;;;;;47.95;26.33;;;4.80;99.90;;;;;;4934622;28;20059;-83
2021/12/20 18:52:40;;;;;;;50.90;27.65;;;4.80;99.90;;;;;;4952253;28;20066;-84
2021/12/20 18:55:25;;;;;;;56.28;27.98;;;4.80;99.90;;;;;;4953528;28;20047;-82
2021/12/20 18:57:52;;;;;;;55.47;29.92;;;4.80;99.90;;;;;;4951724;28;20523;-85
2021/12/20 19:00:19;;;;;;;72.88;40.75;;;4.80;99.90;;;;;;4932091;29;20083;-83
2021/12/20 19:02:48;;;;;;;78.35;43.80;;;4.80;99.90;;;;;;4949733;28;20047;-82
2021/12/20 19:05:37;;;;;;;56.58;29.95;;;4.80;99.90;;;;;;4938431;28;20115;-85
2021/12/20 19:08:21;;;;;;;52.55;27.45;;;4.80;99.90;;;;;;4941061;28;20056;-86
2021/12/20 19:11:10;;;;;;;53.30;28.20;;;4.80;99.90;;;;;;4949369;28;20055;-84
2021/12/20 19:13:58;;;;;;;;;;;4.80;99.90;;;;;;4952253;28;20050;-84
2021/12/20 19:16:26;;;;;;;56.80;29.27;;;4.80;99.90;;;;;;4946367;28;19966;-85
2021/12/20 19:18:53;;;;;;;56.58;30.88;;;4.70;99.90;;;;;;4948117;28;20055;-84
2021/12/20 19:21:20;;;;;;;52.03;28.63;;;4.70;99.90;;;;;;4953603;28;20047;-85
2021/12/20 19:23:47;;;;;;;54.42;29.23;;;4.70;99.90;;;;;;4965409;28;20129;-85
2021/12/20 19:26:15;;;;;;;52.20;28.20;;;4.70;99.90;;;;;;4953472;28;20414;-86
2021/12/20 19:28:59;;;;;;;53.83;27.88;;;4.70;99.90;;;;;;4954256;28;20051;-84
2021/12/20 19:31:26;;;;;;;61.13;34.13;;;4.70;99.90;;;;;;4942261;28;20047;-85
2021/12/20 19:33:53;;;;;;;56.72;30.98;;;4.60;99.90;;;;;;4951815;28;20519;-84
2021/12/20 19:36:27;;;;;;;53.90;29.60;;;4.60;99.90;;;;;;4951356;28;20055;-87
2021/12/20 19:38:57;;;;;;;52.92;29.60;;;4.60;99.90;;;;;;4953270;28;20051;-84
2021/12/20 19:41:24;;;;;;;55.22;30.10;;;4.60;99.90;;;;;;4940243;28;22611;-85
2021/12/20 19:43:53;;;;;;;54.78;29.42;;;4.60;99.90;;;;;;4957020;28;20051;-85
2021/12/20 19:46:22;;;;;;;57.13;32.40;;;4.60;99.90;;;;;;4952232;28;20054;-84
2021/12/20 19:48:49;;;;;;;60.40;32.15;;;4.60;99.90;;;;;;4948809;28;20469;-85
2021/12/20 19:51:17;;;;;;;55.28;30.63;;;4.60;99.90;;;;;;4928826;28;20477;-84
2021/12/20 19:53:44;;;;;;;56.67;31.08;;;4.60;99.90;;;;;;4941197;28;20102;-85
2021/12/20 19:56:11;;;;;;;51.97;29.05;;;4.60;99.90;;;;;;4927502;28;20047;-85
2021/12/20 19:58:46;;;;;;;57.72;30.58;;;4.50;99.90;;;;;;4925913;29;20063;-86
2021/12/20 20:01:16;;;;;;;54.97;30.23;;;4.50;99.90;;;;;;4945012;28;20055;-86
2021/12/20 20:03:45;;;;;;;58.97;30.95;;;4.50;99.90;;;;;;4947306;28;21126;-84
2021/12/20 20:06:12;;;;;;;;;;;4.50;99.90;;;;;;4949073;28;20039;-86
2021/12/20 20:08:40;;;;;;;59.33;29.92;;;4.40;99.90;;;;;;4950195;28;20237;-86
2021/12/20 20:11:07;;;;;;;60.90;32.17;;;4.40;99.90;;;;;;4943275;28;20054;-85